Latest Weather Observations for PORTABLE QFRL (Mt Fox)
Issued at 9:13 pm EST Saturday 9 May 2026 (issued every 10 minutes, with the page automatically refreshed every 10 minutes)
| Station Details | ID: 250076 | Name: MOUNT FOX (QFRL) | Lat: -18.82 | Lon: 145.79 | Height: 645.0 m |
Portable automatic weather stations (PAWS) are operated by other organisations, such as Fire and Emergency Services, and are included here by agreement. Portable stations may be deployed to a location for a short period and their location may be subject to change without notice. Wind observations from these stations are provided from heights of either three (3) or ten (10) metres above ground level (AGL).
Data from the previous 72 hours. | See also: Recent months for locations in Queensland| Date/Time EST |
Temp °C |
App Temp °C |
Dew Point °C |
Rel Hum % |
Delta-T °C |
Wind | Press QNH hPa |
Press MSL hPa |
Rain since 9am mm |
|||||
|---|---|---|---|---|---|---|---|---|---|---|---|---|---|---|
| Dir | Spd km/h |
Gust km/h |
Spd kts |
Gust kts |
||||||||||
| 09/09:00pm | 17.7 | 18.6 | 14.0 | 79 | 2.2 | ENE | 2 | 6 | 1 | 3 | - | - | 0.0 | |
| 09/08:50pm | 17.9 | 18.3 | 13.7 | 76 | 2.5 | ENE | 4 | 6 | 2 | 3 | - | - | 0.0 | |
| 09/08:40pm | 17.9 | 18.2 | 13.4 | 75 | 2.6 | ENE | 4 | 6 | 2 | 3 | - | - | 0.0 | |
| 09/08:30pm | 18.0 | 18.3 | 13.4 | 74 | 2.7 | NE | 4 | 6 | 2 | 3 | - | - | 0.0 | |
| 09/08:20pm | 18.0 | 18.5 | 12.9 | 72 | 2.9 | NE | 2 | 6 | 1 | 3 | - | - | 0.0 | |
| 09/08:10pm | 17.9 | 17.9 | 12.3 | 70 | 3.2 | ENE | 4 | 6 | 2 | 3 | - | - | 0.0 | |
| 09/08:00pm | 17.9 | 17.8 | 12.0 | 68 | 3.4 | ENE | 4 | 6 | 2 | 3 | - | - | 0.0 | |
| 09/07:50pm | 17.9 | 17.7 | 11.9 | 68 | 3.4 | NE | 4 | 7 | 2 | 4 | - | - | 0.0 | |
| 09/07:40pm | 17.9 | 18.1 | 11.7 | 67 | 3.5 | NE | 2 | 6 | 1 | 3 | - | - | 0.0 | |
| 09/07:30pm | 17.9 | 18.0 | 11.6 | 66 | 3.6 | ENE | 2 | 6 | 1 | 3 | - | - | 0.0 | |
| 09/07:20pm | 17.9 | 18.1 | 11.7 | 67 | 3.5 | NE | 2 | 6 | 1 | 3 | - | - | 0.0 | |
| 09/07:10pm | 17.9 | 17.6 | 11.6 | 66 | 3.6 | NE | 4 | 6 | 2 | 3 | - | - | 0.0 | |
| 09/07:00pm | 17.9 | 17.6 | 11.5 | 66 | 3.6 | NE | 4 | 6 | 2 | 3 | - | - | 0.0 | |
| 09/06:50pm | 17.9 | 18.0 | 11.6 | 66 | 3.6 | NE | 2 | 6 | 1 | 3 | - | - | 0.0 | |
| 09/06:40pm | 18.0 | 17.7 | 11.5 | 65 | 3.7 | NE | 4 | 6 | 2 | 3 | - | - | 0.0 | |
| 09/06:30pm | 18.0 | 18.1 | 11.4 | 65 | 3.7 | ENE | 2 | 4 | 1 | 2 | - | - | 0.0 | |
| 09/06:20pm | 18.1 | 18.1 | 11.3 | 64 | 3.8 | E | 2 | 7 | 1 | 4 | - | - | 0.0 | |
| 09/06:10pm | 18.1 | 17.7 | 11.1 | 63 | 3.9 | ENE | 4 | 6 | 2 | 3 | - | - | 0.0 | |
| 09/06:00pm | 18.2 | 18.3 | 11.4 | 64 | 3.8 | E | 2 | 6 | 1 | 3 | - | - | 0.0 | |
| 09/05:50pm | 18.3 | 18.3 | 11.1 | 63 | 4.0 | ENE | 2 | 6 | 1 | 3 | - | - | 0.0 | |
| 09/05:40pm | 18.4 | 17.9 | 10.9 | 61 | 4.2 | E | 4 | 6 | 2 | 3 | - | - | 0.0 | |
| 09/05:30pm | 18.5 | 18.1 | 11.1 | 62 | 4.1 | ENE | 4 | 7 | 2 | 4 | - | - | 0.0 | |
| 09/05:20pm | 18.7 | 18.4 | 11.4 | 62 | 4.1 | ENE | 4 | 6 | 2 | 3 | - | - | 0.0 | |
| 09/05:10pm | 18.9 | 18.6 | 11.5 | 62 | 4.2 | NE | 4 | 6 | 2 | 3 | - | - | 0.0 | |
| 09/05:00pm | 19.0 | 19.1 | 11.6 | 62 | 4.2 | ENE | 2 | 6 | 1 | 3 | - | - | 0.0 | |
| 09/04:50pm | 19.2 | 19.3 | 11.5 | 61 | 4.4 | E | 2 | 6 | 1 | 3 | - | - | 0.0 | |
| 09/04:40pm | 19.4 | 19.4 | 11.1 | 58 | 4.7 | E | 2 | 6 | 1 | 3 | - | - | 0.0 | |
| 09/04:30pm | 19.5 | 19.1 | 11.2 | 58 | 4.7 | ENE | 4 | 7 | 2 | 4 | - | - | 0.0 | |
| 09/04:20pm | 19.7 | 18.8 | 10.7 | 56 | 5.0 | ENE | 6 | 7 | 3 | 4 | - | - | 0.0 | |
| 09/04:10pm | 20.1 | 19.7 | 11.0 | 55 | 5.1 | ENE | 4 | 7 | 2 | 4 | - | - | 0.0 | |
| 09/04:00pm | 20.2 | 19.5 | 11.3 | 56 | 5.1 | NE | 6 | 7 | 3 | 4 | - | - | 0.0 | |
| 09/03:50pm | 20.6 | 20.3 | 11.3 | 55 | 5.3 | NE | 4 | 7 | 2 | 4 | - | - | 0.0 | |
| 09/03:40pm | 20.7 | 20.2 | 10.7 | 52 | 5.6 | NE | 4 | 7 | 2 | 4 | - | - | 0.0 | |
| 09/03:30pm | 20.6 | 19.5 | 10.6 | 52 | 5.6 | NE | 7 | 11 | 4 | 6 | - | - | 0.0 | |
| 09/03:20pm | 21.0 | 20.1 | 10.5 | 51 | 5.9 | NE | 6 | 7 | 3 | 4 | - | - | 0.0 | |
| 09/03:10pm | 21.2 | 20.5 | 11.3 | 53 | 5.6 | ENE | 6 | 7 | 3 | 4 | - | - | 0.0 | |
| 09/03:00pm | 21.3 | 20.5 | 10.9 | 51 | 5.9 | ENE | 6 | 11 | 3 | 6 | - | - | 0.0 | |
| 09/02:50pm | 21.3 | 20.6 | 11.4 | 53 | 5.7 | NE | 6 | 11 | 3 | 6 | - | - | 0.0 | |
| 09/02:40pm | 21.4 | 20.7 | 11.5 | 53 | 5.7 | NE | 6 | 11 | 3 | 6 | - | - | 0.0 | |
| 09/02:30pm | 21.6 | 20.7 | 11.5 | 52 | 5.8 | NNE | 7 | 13 | 4 | 7 | - | - | 0.0 | |
| 09/02:20pm | 22.0 | 21.5 | 11.9 | 52 | 5.8 | NE | 6 | 9 | 3 | 5 | - | - | 0.0 | |
| 09/02:10pm | 22.0 | 21.2 | 11.7 | 52 | 5.9 | NNE | 7 | 15 | 4 | 8 | - | - | 0.0 | |
| 09/02:00pm | 22.0 | 21.1 | 11.3 | 50 | 6.1 | NNE | 7 | 15 | 4 | 8 | - | - | 0.0 | |
| 09/01:50pm | 22.0 | 21.2 | 11.7 | 52 | 5.9 | NE | 7 | 13 | 4 | 7 | - | - | 0.0 | |
| 09/01:40pm | 22.1 | 21.1 | 11.0 | 49 | 6.3 | NNE | 7 | 11 | 4 | 6 | - | - | 0.0 | |
| 09/01:30pm | 22.3 | 21.3 | 11.0 | 48 | 6.4 | NE | 7 | 9 | 4 | 5 | - | - | 0.0 | |
| 09/01:20pm | 22.4 | 21.5 | 11.2 | 49 | 6.4 | NNE | 7 | 13 | 4 | 7 | - | - | 0.0 | |
| 09/01:10pm | 22.8 | 22.3 | 11.9 | 50 | 6.3 | NNE | 6 | 13 | 3 | 7 | - | - | 0.0 | |
| 09/01:00pm | 22.8 | 22.3 | 12.1 | 51 | 6.2 | NNE | 6 | 9 | 3 | 5 | - | - | 0.0 | |
| 09/12:50pm | 22.8 | 22.3 | 12.1 | 51 | 6.2 | NNE | 6 | 9 | 3 | 5 | - | - | 0.0 | |
| 09/12:40pm | 23.1 | 22.6 | 12.8 | 52 | 6.1 | NE | 7 | 9 | 4 | 5 | - | - | 0.0 | |
| 09/12:30pm | 23.6 | 23.6 | 13.5 | 53 | 6.0 | NE | 6 | 11 | 3 | 6 | - | - | 0.0 | |
| 09/12:20pm | 23.5 | 23.0 | 12.5 | 50 | 6.5 | ENE | 7 | 13 | 4 | 7 | - | - | 0.0 | |
| 09/12:10pm | 23.2 | 22.4 | 11.8 | 48 | 6.6 | NE | 7 | 13 | 4 | 7 | - | - | 0.0 | |
| 09/12:00pm | 23.2 | 22.3 | 11.5 | 47 | 6.8 | NE | 7 | 11 | 4 | 6 | - | - | 0.0 | |
| 09/11:50am | 23.1 | 22.5 | 11.7 | 48 | 6.6 | NE | 6 | 9 | 3 | 5 | - | - | 0.0 | |
| 09/11:40am | 23.0 | 22.4 | 11.7 | 49 | 6.5 | ENE | 6 | 7 | 3 | 4 | - | - | 0.0 | |
| 09/11:30am | 22.6 | 21.7 | 11.5 | 49 | 6.4 | NE | 7 | 11 | 4 | 6 | - | - | 0.0 | |
| 09/11:20am | 22.6 | 21.8 | 11.8 | 50 | 6.3 | ENE | 7 | 11 | 4 | 6 | - | - | 0.0 | |
| 09/11:10am | 22.6 | 22.3 | 13.3 | 55 | 5.5 | NNE | 7 | 11 | 4 | 6 | - | - | 0.0 | |
| 09/11:00am | 22.8 | 22.9 | 14.0 | 57 | 5.3 | NE | 6 | 9 | 3 | 5 | - | - | 0.0 | |
| 09/10:50am | 22.4 | 22.1 | 13.3 | 56 | 5.4 | NE | 7 | 13 | 4 | 7 | - | - | 0.0 | |
| 09/10:40am | 22.1 | 22.2 | 14.0 | 60 | 4.9 | NE | 6 | 9 | 3 | 5 | - | - | 0.0 | |
| 09/10:30am | 21.9 | 21.5 | 13.0 | 57 | 5.2 | NNE | 7 | 11 | 4 | 6 | - | - | 0.0 | |
| 09/10:20am | 21.9 | 21.2 | 12.0 | 53 | 5.7 | ENE | 7 | 11 | 4 | 6 | - | - | 0.0 | |
| 09/10:10am | 21.8 | 21.6 | 13.1 | 57 | 5.1 | ENE | 6 | 9 | 3 | 5 | - | - | 0.0 | |
| 09/10:00am | 21.6 | 21.5 | 13.4 | 59 | 4.9 | NE | 6 | 7 | 3 | 4 | - | - | 0.0 | |
| 09/09:50am | 21.5 | 21.5 | 14.1 | 62 | 4.4 | NE | 7 | 11 | 4 | 6 | - | - | 0.0 | |
| 09/09:40am | 21.1 | 21.2 | 13.8 | 63 | 4.3 | NE | 6 | 7 | 3 | 4 | - | - | 0.0 | |
| 09/09:30am | 21.2 | 21.2 | 13.7 | 62 | 4.5 | NNE | 6 | 9 | 3 | 5 | - | - | 0.0 | |
| 09/09:20am | 21.1 | 21.4 | 14.6 | 66 | 3.9 | ENE | 6 | 11 | 3 | 6 | - | - | 0.0 | |
| 09/09:10am | 21.2 | 21.9 | 14.5 | 65 | 4.0 | ENE | 4 | 7 | 2 | 4 | - | - | 0.0 | |
| 09/09:00am | 20.8 | 21.9 | 15.7 | 72 | 3.1 | E | 4 | 7 | 2 | 4 | - | - | 2.0 | |
| 09/08:50am | 20.4 | 21.6 | 15.8 | 75 | 2.8 | NE | 4 | 7 | 2 | 4 | - | - | 2.0 | |
| 09/08:40am | 20.3 | 21.9 | 16.9 | 81 | 2.1 | NNE | 4 | 7 | 2 | 4 | - | - | 2.0 | |
| 09/08:30am | 19.1 | 20.9 | 17.4 | 90 | 1.1 | NNE | 4 | 7 | 2 | 4 | - | - | 2.0 | |
| 09/08:20am | 18.9 | 20.7 | 17.4 | 91 | 0.9 | N | 4 | 6 | 2 | 3 | - | - | 2.0 | |
| 09/08:10am | 18.9 | 21.0 | 17.3 | 90 | 1.0 | N | 2 | 4 | 1 | 2 | - | - | 2.0 | |
| 09/08:00am | 18.8 | 21.1 | 17.6 | 93 | 0.8 | NNE | 2 | 4 | 1 | 2 | - | - | 2.0 | |
| 09/07:50am | 18.5 | 20.7 | 17.5 | 94 | 0.6 | ENE | 2 | 4 | 1 | 2 | - | - | 2.0 | |
| 09/07:40am | 18.4 | 21.0 | 17.5 | 94 | 0.6 | CALM | 0 | 2 | 0 | 1 | - | - | 2.0 | |
| 09/07:30am | 18.1 | 20.6 | 17.3 | 95 | 0.5 | CALM | 0 | 0 | 0 | 0 | - | - | 2.0 | |
| 09/07:20am | 17.9 | 20.3 | 17.1 | 95 | 0.5 | CALM | 0 | 0 | 0 | 0 | - | - | 2.0 | |
| 09/07:10am | 17.8 | 20.2 | 17.0 | 95 | 0.5 | CALM | 0 | 0 | 0 | 0 | - | - | 2.0 | |
| 09/07:00am | 17.8 | 20.2 | 17.0 | 95 | 0.5 | CALM | 0 | 0 | 0 | 0 | - | - | 2.0 | |
| 09/06:50am | 17.7 | 20.1 | 17.0 | 96 | 0.4 | CALM | 0 | 4 | 0 | 2 | - | - | 2.0 | |
| 09/06:40am | 17.7 | 20.1 | 16.9 | 95 | 0.5 | CALM | 0 | 2 | 0 | 1 | - | - | 2.0 | |
| 09/06:30am | 17.7 | 19.7 | 16.9 | 95 | 0.5 | ENE | 2 | 2 | 1 | 1 | - | - | 2.0 | |
| 09/06:20am | 17.7 | 19.7 | 16.9 | 95 | 0.5 | ESE | 2 | 6 | 1 | 3 | - | - | 2.0 | |
| 09/06:10am | 17.8 | 19.8 | 16.9 | 94 | 0.6 | NE | 2 | 4 | 1 | 2 | - | - | 2.0 | |
| 09/06:00am | 17.8 | 19.8 | 16.9 | 94 | 0.6 | NE | 2 | 4 | 1 | 2 | - | - | 2.0 | |
| 09/05:50am | 17.8 | 20.2 | 16.9 | 94 | 0.6 | CALM | 0 | 4 | 0 | 2 | - | - | 2.0 | |
| 09/05:40am | 17.8 | 19.8 | 16.9 | 94 | 0.6 | ENE | 2 | 2 | 1 | 1 | - | - | 2.0 | |
| 09/05:30am | 17.8 | 19.4 | 16.9 | 94 | 0.6 | ESE | 4 | 7 | 2 | 4 | - | - | 2.0 | |
| 09/05:20am | 17.9 | 19.5 | 17.0 | 94 | 0.6 | E | 4 | 9 | 2 | 5 | - | - | 2.0 | |
| 09/05:10am | 17.9 | 19.6 | 17.1 | 95 | 0.5 | E | 4 | 6 | 2 | 3 | - | - | 2.0 | |
| 09/05:00am | 18.0 | 20.1 | 17.2 | 95 | 0.5 | NE | 2 | 4 | 1 | 2 | - | - | 2.0 | |
| 09/04:50am | 18.0 | 19.7 | 17.2 | 95 | 0.5 | E | 4 | 6 | 2 | 3 | - | - | 2.0 | |
| 09/04:40am | 18.0 | 19.8 | 17.3 | 96 | 0.4 | E | 4 | 7 | 2 | 4 | - | - | 2.0 | |
| 09/04:30am | 18.1 | 20.3 | 17.4 | 96 | 0.4 | E | 2 | 6 | 1 | 3 | - | - | 2.0 | |
| 09/04:20am | 18.2 | 20.4 | 17.5 | 96 | 0.4 | ENE | 2 | 4 | 1 | 2 | - | - | 2.0 | |
| 09/04:10am | 18.2 | 20.4 | 17.4 | 95 | 0.5 | E | 2 | 4 | 1 | 2 | - | - | 2.0 | |
| 09/04:00am | 18.2 | 20.4 | 17.4 | 95 | 0.5 | ESE | 2 | 6 | 1 | 3 | - | - | 2.0 | |
| 09/03:50am | 18.2 | 20.8 | 17.4 | 95 | 0.5 | CALM | 0 | 0 | 0 | 0 | - | - | 1.8 | |
| 09/03:40am | 18.2 | 20.4 | 17.4 | 95 | 0.5 | E | 2 | 2 | 1 | 1 | - | - | 1.4 | |
| 09/03:30am | 18.2 | 20.3 | 17.3 | 94 | 0.6 | SE | 2 | 4 | 1 | 2 | - | - | 1.0 | |
| 09/03:20am | 18.3 | 19.7 | 17.3 | 94 | 0.6 | E | 6 | 7 | 3 | 4 | - | - | 0.4 | |
| 09/03:10am | 18.4 | 20.2 | 17.3 | 93 | 0.7 | E | 4 | 6 | 2 | 3 | - | - | 0.0 | |
| 09/03:00am | 18.5 | 20.3 | 17.4 | 93 | 0.7 | ESE | 4 | 6 | 2 | 3 | - | - | 0.0 | |
| 09/02:50am | 18.6 | 21.2 | 17.4 | 93 | 0.8 | CALM | 0 | 2 | 0 | 1 | - | - | 0.0 | |
| 09/02:40am | 18.6 | 20.8 | 17.4 | 93 | 0.8 | E | 2 | 4 | 1 | 2 | - | - | 0.0 | |
| 09/02:30am | 18.7 | 20.5 | 17.4 | 92 | 0.8 | NNE | 4 | 6 | 2 | 3 | - | - | 0.0 | |
| 09/02:20am | 19.0 | 20.8 | 17.3 | 90 | 1.1 | ENE | 4 | 7 | 2 | 4 | - | - | 0.0 | |
| 09/02:10am | 19.2 | 21.5 | 17.7 | 91 | 0.9 | NE | 2 | 4 | 1 | 2 | - | - | 0.0 | |
| 09/02:00am | 19.3 | 21.2 | 17.6 | 90 | 1.1 | E | 4 | 7 | 2 | 4 | - | - | 0.0 | |
| 09/01:50am | 19.3 | 21.5 | 17.5 | 89 | 1.1 | E | 2 | 6 | 1 | 3 | - | - | 0.0 | |
| 09/01:40am | 19.3 | 21.6 | 17.6 | 90 | 1.1 | E | 2 | 6 | 1 | 3 | - | - | 0.0 | |
| 09/01:30am | 19.3 | 21.2 | 17.7 | 90 | 1.0 | ESE | 4 | 4 | 2 | 2 | - | - | 0.0 | |
| 09/01:20am | 19.3 | 21.6 | 17.8 | 91 | 0.9 | E | 2 | 6 | 1 | 3 | - | - | 0.0 | |
| 09/01:10am | 19.4 | 21.4 | 17.8 | 90 | 1.0 | E | 4 | 6 | 2 | 3 | - | - | 0.0 | |
| 09/01:00am | 19.4 | 21.5 | 18.0 | 92 | 0.9 | E | 4 | 6 | 2 | 3 | - | - | 0.0 | |
| 09/12:50am | 19.4 | 21.5 | 18.1 | 92 | 0.8 | E | 4 | 7 | 2 | 4 | - | - | 0.0 | |
| 09/12:40am | 19.3 | 21.4 | 18.1 | 93 | 0.8 | E | 4 | 6 | 2 | 3 | - | - | 0.0 | |
| 09/12:30am | 19.3 | 21.8 | 18.1 | 93 | 0.8 | E | 2 | 4 | 1 | 2 | - | - | 0.0 | |
| 09/12:20am | 19.3 | 21.7 | 18.0 | 92 | 0.8 | ENE | 2 | 6 | 1 | 3 | - | - | 0.0 | |
| 09/12:10am | 19.3 | 21.7 | 18.0 | 92 | 0.8 | ENE | 2 | 4 | 1 | 2 | - | - | 0.0 | |
| 09/12:00am | 19.4 | 21.5 | 18.0 | 92 | 0.9 | ENE | 4 | 6 | 2 | 3 | - | - | 0.0 | |
| Date/Time EST |
Temp °C |
App Temp °C |
Dew Point °C |
Rel Hum % |
Delta-T °C |
Wind | Press QNH hPa |
Press MSL hPa |
Rain since 9am mm |
|||||
|---|---|---|---|---|---|---|---|---|---|---|---|---|---|---|
| Dir | Spd km/h |
Gust km/h |
Spd kts |
Gust kts |
||||||||||
| 08/11:50pm | 19.4 | 21.5 | 18.1 | 92 | 0.8 | E | 4 | 7 | 2 | 4 | - | - | 0.0 | |
| 08/11:40pm | 19.4 | 21.8 | 18.0 | 92 | 0.9 | ENE | 2 | 6 | 1 | 3 | - | - | 0.0 | |
| 08/11:30pm | 19.4 | 21.8 | 18.0 | 92 | 0.9 | E | 2 | 6 | 1 | 3 | - | - | 0.0 | |
| 08/11:20pm | 19.4 | 21.5 | 18.0 | 92 | 0.9 | ENE | 4 | 6 | 2 | 3 | - | - | 0.0 | |
| 08/11:10pm | 19.4 | 21.8 | 18.0 | 92 | 0.9 | E | 2 | 6 | 1 | 3 | - | - | 0.0 | |
| 08/11:00pm | 19.4 | 21.1 | 18.0 | 92 | 0.9 | E | 6 | 7 | 3 | 4 | - | - | 0.0 | |
| 08/10:50pm | 19.3 | 21.4 | 18.0 | 92 | 0.8 | E | 4 | 6 | 2 | 3 | - | - | 0.0 | |
| 08/10:40pm | 19.3 | 21.4 | 18.0 | 92 | 0.8 | E | 4 | 7 | 2 | 4 | - | - | 0.0 | |
| 08/10:30pm | 19.3 | 21.4 | 18.0 | 92 | 0.8 | ENE | 4 | 6 | 2 | 3 | - | - | 0.0 | |
| 08/10:20pm | 19.3 | 21.4 | 18.0 | 92 | 0.8 | ENE | 4 | 6 | 2 | 3 | - | - | 0.0 | |
| 08/10:10pm | 19.3 | 21.4 | 18.1 | 93 | 0.8 | ENE | 4 | 7 | 2 | 4 | - | - | 0.0 | |
| 08/10:00pm | 19.3 | 21.7 | 18.0 | 92 | 0.8 | ENE | 2 | 4 | 1 | 2 | - | - | 0.0 | |
| 08/09:50pm | 19.2 | 21.3 | 18.0 | 93 | 0.8 | ENE | 4 | 7 | 2 | 4 | - | - | 0.0 | |
| 08/09:40pm | 19.2 | 21.3 | 18.0 | 93 | 0.8 | E | 4 | 6 | 2 | 3 | - | - | 0.0 | |
| 08/09:30pm | 19.1 | 21.2 | 18.0 | 93 | 0.7 | E | 4 | 6 | 2 | 3 | - | - | 0.0 | |
| 08/09:20pm | 19.1 | 21.2 | 18.0 | 93 | 0.7 | E | 4 | 6 | 2 | 3 | - | - | 0.0 | |
| 08/09:10pm | 19.1 | 21.5 | 18.0 | 93 | 0.7 | E | 2 | 6 | 1 | 3 | - | - | 0.0 | |
| 08/09:00pm | 19.0 | 21.0 | 17.9 | 93 | 0.7 | E | 4 | 6 | 2 | 3 | - | - | 0.0 | |
| 08/08:50pm | 18.9 | 21.3 | 17.9 | 94 | 0.6 | E | 2 | 6 | 1 | 3 | - | - | 0.0 | |
| 08/08:40pm | 18.9 | 21.2 | 17.8 | 93 | 0.7 | E | 2 | 6 | 1 | 3 | - | - | 0.0 | |
| 08/08:30pm | 18.9 | 21.2 | 17.8 | 93 | 0.7 | E | 2 | 6 | 1 | 3 | - | - | 0.0 | |
| 08/08:20pm | 19.0 | 21.3 | 17.8 | 93 | 0.8 | ENE | 2 | 4 | 1 | 2 | - | - | 0.0 | |
| 08/08:10pm | 19.0 | 21.4 | 17.9 | 93 | 0.7 | E | 2 | 6 | 1 | 3 | - | - | 0.0 | |
| 08/08:00pm | 19.0 | 21.4 | 17.9 | 93 | 0.7 | ENE | 2 | 6 | 1 | 3 | - | - | 0.0 | |
| 08/07:50pm | 19.0 | 21.3 | 17.8 | 93 | 0.8 | E | 2 | 4 | 1 | 2 | - | - | 0.0 | |
| 08/07:40pm | 19.1 | 21.4 | 17.8 | 92 | 0.8 | NE | 2 | 6 | 1 | 3 | - | - | 0.0 | |
| 08/07:30pm | 19.3 | 21.6 | 17.7 | 90 | 1.0 | ENE | 2 | 4 | 1 | 2 | - | - | 0.0 | |
| 08/07:20pm | 19.4 | 21.7 | 17.7 | 90 | 1.1 | E | 2 | 4 | 1 | 2 | - | - | 0.0 | |
| 08/07:10pm | 19.4 | 21.3 | 17.7 | 90 | 1.1 | NE | 4 | 7 | 2 | 4 | - | - | 0.0 | |
| 08/07:00pm | 19.2 | 21.0 | 17.5 | 90 | 1.1 | ENE | 4 | 6 | 2 | 3 | - | - | 0.0 | |
| 08/06:50pm | 19.1 | 21.2 | 17.1 | 88 | 1.2 | ENE | 2 | 6 | 1 | 3 | - | - | 0.0 | |
| 08/06:40pm | 19.0 | 21.0 | 16.9 | 88 | 1.3 | E | 2 | 7 | 1 | 4 | - | - | 0.0 | |
| 08/06:30pm | 19.1 | 20.7 | 16.8 | 86 | 1.4 | ENE | 4 | 7 | 2 | 4 | - | - | 0.0 | |
| 08/06:20pm | 19.2 | 21.1 | 16.7 | 85 | 1.5 | ENE | 2 | 6 | 1 | 3 | - | - | 0.0 | |
| 08/06:10pm | 19.4 | 21.3 | 16.8 | 85 | 1.6 | NE | 2 | 4 | 1 | 2 | - | - | 0.0 | |
| 08/06:00pm | 19.8 | 21.3 | 16.7 | 82 | 1.9 | NNE | 4 | 6 | 2 | 3 | - | - | 0.0 | |
| 08/05:50pm | 20.1 | 21.6 | 16.6 | 80 | 2.2 | NE | 4 | 4 | 2 | 2 | - | - | 0.0 | |
| 08/05:40pm | 20.3 | 22.2 | 16.6 | 79 | 2.3 | ENE | 2 | 4 | 1 | 2 | - | - | 0.0 | |
| 08/05:30pm | 20.6 | 22.1 | 16.6 | 78 | 2.5 | ENE | 4 | 9 | 2 | 5 | - | - | 0.0 | |
| 08/05:20pm | 21.0 | 22.1 | 16.5 | 75 | 2.8 | E | 6 | 6 | 3 | 3 | - | - | 0.0 | |
| 08/05:10pm | 21.3 | 22.3 | 16.3 | 73 | 3.1 | ENE | 6 | 9 | 3 | 5 | - | - | 0.0 | |
| 08/05:00pm | 21.3 | 22.8 | 16.6 | 74 | 2.9 | ENE | 4 | 7 | 2 | 4 | - | - | 0.0 | |
| 08/04:50pm | 21.3 | 22.8 | 16.6 | 74 | 2.9 | NE | 4 | 9 | 2 | 5 | - | - | 0.0 | |
| 08/04:40pm | 21.6 | 22.7 | 16.6 | 73 | 3.1 | NE | 6 | 9 | 3 | 5 | - | - | 0.0 | |
| 08/04:30pm | 22.2 | 23.1 | 16.5 | 70 | 3.6 | ENE | 7 | 9 | 4 | 5 | - | - | 0.0 | |
| 08/04:20pm | 22.7 | 23.3 | 16.8 | 69 | 3.7 | NE | 9 | 13 | 5 | 7 | - | - | 0.0 | |
| 08/04:10pm | 23.1 | 23.7 | 16.9 | 68 | 3.9 | NE | 9 | 13 | 5 | 7 | - | - | 0.0 | |
| 08/04:00pm | 23.4 | 24.5 | 17.1 | 67 | 4.0 | NE | 7 | 15 | 4 | 8 | - | - | 0.0 | |
| 08/03:50pm | 23.6 | 24.2 | 16.9 | 66 | 4.2 | NNE | 9 | 15 | 5 | 8 | - | - | 0.0 | |
| 08/03:40pm | 23.9 | 24.7 | 17.2 | 66 | 4.3 | NE | 9 | 15 | 5 | 8 | - | - | 0.0 | |
| 08/03:30pm | 23.8 | 24.0 | 16.8 | 65 | 4.4 | NE | 11 | 17 | 6 | 9 | - | - | 0.0 | |
| 08/03:20pm | 23.5 | 24.1 | 16.9 | 66 | 4.2 | NE | 9 | 11 | 5 | 6 | - | - | 0.0 | |
| 08/03:10pm | 23.5 | 24.2 | 17.1 | 67 | 4.1 | NE | 9 | 15 | 5 | 8 | - | - | 0.0 | |
| 08/03:00pm | 23.4 | 23.8 | 17.3 | 68 | 3.9 | NE | 11 | 15 | 6 | 8 | - | - | 0.0 | |
| 08/02:50pm | 23.8 | 25.0 | 17.3 | 67 | 4.1 | NE | 7 | 13 | 4 | 7 | - | - | 0.0 | |
| 08/02:40pm | 24.3 | 25.4 | 17.9 | 67 | 4.1 | NE | 9 | 13 | 5 | 7 | - | - | 0.0 | |
| 08/02:30pm | 24.5 | 25.2 | 17.9 | 66 | 4.2 | NE | 11 | 17 | 6 | 9 | - | - | 0.0 | |
| 08/02:20pm | 24.7 | 25.6 | 17.5 | 64 | 4.6 | NE | 9 | 11 | 5 | 6 | - | - | 0.0 | |
| 08/02:10pm | 24.0 | 25.1 | 17.1 | 65 | 4.4 | ENE | 7 | 11 | 4 | 6 | - | - | 0.0 | |
| 08/02:00pm | 24.2 | 25.0 | 17.2 | 65 | 4.5 | ENE | 9 | 15 | 5 | 8 | - | - | 0.0 | |
| 08/01:50pm | 24.7 | 26.1 | 17.8 | 65 | 4.4 | ENE | 7 | 11 | 4 | 6 | - | - | 0.0 | |
| 08/01:40pm | 24.5 | 25.7 | 17.4 | 64 | 4.5 | ENE | 7 | 15 | 4 | 8 | - | - | 0.0 | |
| 08/01:30pm | 23.5 | 24.1 | 16.7 | 65 | 4.3 | NE | 9 | 13 | 5 | 7 | - | - | 0.0 | |
| 08/01:20pm | 23.0 | 24.5 | 17.7 | 72 | 3.4 | NE | 6 | 7 | 3 | 4 | - | - | 0.0 | |
| 08/01:10pm | 23.2 | 24.6 | 17.9 | 72 | 3.4 | ENE | 7 | 11 | 4 | 6 | - | - | 0.0 | |
| 08/01:00pm | 23.7 | 25.0 | 17.6 | 68 | 3.9 | NNE | 7 | 13 | 4 | 7 | - | - | 0.0 | |
| 08/12:50pm | 23.8 | 25.1 | 17.6 | 68 | 4.0 | NE | 7 | 13 | 4 | 7 | - | - | 0.0 | |
| 08/12:40pm | 24.5 | 25.1 | 16.8 | 62 | 4.9 | E | 9 | 15 | 5 | 8 | - | - | 0.0 | |
| 08/12:30pm | 24.4 | 25.2 | 17.3 | 64 | 4.5 | ENE | 9 | 15 | 5 | 8 | - | - | 0.0 | |
| 08/12:20pm | 23.8 | 24.9 | 17.0 | 65 | 4.3 | NE | 7 | 9 | 4 | 5 | - | - | 0.0 | |
| 08/12:10pm | 24.3 | 25.4 | 17.1 | 64 | 4.6 | ENE | 7 | 11 | 4 | 6 | - | - | 0.0 | |
| 08/12:00pm | 24.4 | 25.7 | 17.5 | 65 | 4.4 | ENE | 7 | 9 | 4 | 5 | - | - | 0.0 | |
| 08/11:50am | 23.6 | 24.3 | 17.0 | 66 | 4.2 | ENE | 9 | 13 | 5 | 7 | - | - | 0.0 | |
| 08/11:40am | 24.2 | 24.8 | 16.8 | 63 | 4.7 | ENE | 9 | 13 | 5 | 7 | - | - | 0.0 | |
| 08/11:30am | 24.0 | 25.0 | 16.9 | 64 | 4.5 | NE | 7 | 11 | 4 | 6 | - | - | 0.0 | |
| 08/11:20am | 23.1 | 24.3 | 17.4 | 70 | 3.6 | NE | 7 | 11 | 4 | 6 | - | - | 0.0 | |
| 08/11:10am | 22.5 | 23.6 | 17.1 | 71 | 3.4 | E | 7 | 13 | 4 | 7 | - | - | 0.0 | |
| 08/11:00am | 22.9 | 24.2 | 17.0 | 69 | 3.7 | E | 6 | 9 | 3 | 5 | - | - | 0.0 | |
| 08/10:50am | 23.2 | 24.6 | 17.4 | 70 | 3.7 | NE | 6 | 11 | 3 | 6 | - | - | 0.0 | |
| 08/10:40am | 23.5 | 24.6 | 17.0 | 67 | 4.1 | ENE | 7 | 13 | 4 | 7 | - | - | 0.0 | |
| 08/10:30am | 24.0 | 25.3 | 17.6 | 67 | 4.1 | E | 7 | 15 | 4 | 8 | - | - | 0.0 | |
| 08/10:20am | 23.7 | 25.0 | 17.6 | 68 | 3.9 | NE | 7 | 11 | 4 | 6 | - | - | 0.0 | |
| 08/10:10am | 24.1 | 25.5 | 17.4 | 66 | 4.3 | ENE | 6 | 7 | 3 | 4 | - | - | 0.0 | |
| 08/10:00am | 23.7 | 25.1 | 17.4 | 68 | 4.0 | NNE | 6 | 11 | 3 | 6 | - | - | 0.0 | |
| 08/09:50am | 23.9 | 25.0 | 16.7 | 64 | 4.5 | NE | 6 | 11 | 3 | 6 | - | - | 0.0 | |
| 08/09:40am | 23.6 | 25.6 | 17.8 | 70 | 3.7 | E | 4 | 4 | 2 | 2 | - | - | 0.0 | |
| 08/09:30am | 21.9 | 23.1 | 16.9 | 73 | 3.1 | ENE | 6 | 11 | 3 | 6 | - | - | 0.0 | |
| 08/09:20am | 21.4 | 22.4 | 16.8 | 75 | 2.9 | ESE | 7 | 11 | 4 | 6 | - | - | 0.0 | |
| 08/09:10am | 21.3 | 21.8 | 16.5 | 74 | 3.0 | ESE | 9 | 11 | 5 | 6 | - | - | 0.0 | |
| 08/09:00am | 21.7 | 22.9 | 16.9 | 74 | 3.0 | ESE | 6 | 9 | 3 | 5 | - | - | 0.2 | |
| 08/08:50am | 21.8 | 23.6 | 17.4 | 76 | 2.8 | E | 4 | 6 | 2 | 3 | - | - | 0.2 | |
| 08/08:40am | 21.4 | 23.1 | 17.1 | 76 | 2.7 | E | 4 | 6 | 2 | 3 | - | - | 0.2 | |
| 08/08:30am | 20.9 | 22.5 | 17.0 | 78 | 2.4 | ESE | 4 | 7 | 2 | 4 | - | - | 0.2 | |
| 08/08:20am | 20.2 | 22.2 | 17.0 | 82 | 2.0 | ESE | 2 | 6 | 1 | 3 | - | - | 0.2 | |
| 08/08:10am | 19.5 | 21.6 | 17.1 | 86 | 1.5 | ESE | 2 | 6 | 1 | 3 | - | - | 0.2 | |
| 08/08:00am | 18.8 | 21.5 | 17.7 | 93 | 0.7 | CALM | 0 | 2 | 0 | 1 | - | - | 0.2 | |
| 08/07:50am | 18.3 | 20.5 | 17.5 | 95 | 0.5 | SE | 2 | 2 | 1 | 1 | - | - | 0.2 | |
| 08/07:40am | 17.7 | 20.1 | 16.9 | 95 | 0.5 | CALM | 0 | 4 | 0 | 2 | - | - | 0.2 | |
| 08/07:30am | 17.4 | 19.6 | 16.5 | 94 | 0.6 | CALM | 0 | 0 | 0 | 0 | - | - | 0.2 | |
| 08/07:20am | 17.1 | 19.3 | 16.4 | 96 | 0.4 | CALM | 0 | 0 | 0 | 0 | - | - | 0.2 | |
| 08/07:10am | 16.3 | 18.1 | 15.5 | 95 | 0.5 | CALM | 0 | 0 | 0 | 0 | - | - | 0.2 | |
| 08/07:00am | 16.2 | 18.0 | 15.4 | 95 | 0.5 | CALM | 0 | 0 | 0 | 0 | - | - | 0.2 | |
| 08/06:50am | 16.3 | 18.1 | 15.5 | 95 | 0.5 | CALM | 0 | 0 | 0 | 0 | - | - | 0.0 | |
| 08/06:40am | 16.5 | 18.3 | 15.6 | 94 | 0.5 | CALM | 0 | 0 | 0 | 0 | - | - | 0.0 | |
| 08/06:30am | 16.7 | 18.6 | 15.8 | 94 | 0.5 | CALM | 0 | 0 | 0 | 0 | - | - | 0.0 | |
| 08/06:20am | 16.8 | 18.8 | 15.9 | 94 | 0.5 | CALM | 0 | 0 | 0 | 0 | - | - | 0.0 | |
| 08/06:10am | 17.0 | 19.0 | 16.0 | 94 | 0.6 | CALM | 0 | 2 | 0 | 1 | - | - | 0.0 | |
| 08/06:00am | 17.2 | 19.3 | 16.2 | 94 | 0.6 | CALM | 0 | 4 | 0 | 2 | - | - | 0.0 | |
| 08/05:50am | 17.2 | 19.4 | 16.4 | 95 | 0.5 | CALM | 0 | 4 | 0 | 2 | - | - | 0.0 | |
| 08/05:40am | 16.9 | 18.9 | 16.1 | 95 | 0.5 | CALM | 0 | 0 | 0 | 0 | - | - | 0.0 | |
| 08/05:30am | 16.7 | 18.7 | 15.9 | 95 | 0.5 | CALM | 0 | 4 | 0 | 2 | - | - | 0.0 | |
| 08/05:20am | 16.5 | 18.3 | 15.6 | 94 | 0.5 | CALM | 0 | 0 | 0 | 0 | - | - | 0.0 | |
| 08/05:10am | 16.5 | 18.3 | 15.5 | 94 | 0.6 | CALM | 0 | 0 | 0 | 0 | - | - | 0.0 | |
| 08/05:00am | 16.7 | 18.5 | 15.5 | 93 | 0.7 | CALM | 0 | 2 | 0 | 1 | - | - | 0.0 | |
| 08/04:50am | 16.9 | 18.7 | 15.6 | 92 | 0.8 | CALM | 0 | 0 | 0 | 0 | - | - | 0.0 | |
| 08/04:40am | 17.1 | 19.0 | 15.7 | 91 | 0.8 | CALM | 0 | 2 | 0 | 1 | - | - | 0.0 | |
| 08/04:30am | 17.4 | 19.3 | 15.8 | 90 | 1.0 | CALM | 0 | 0 | 0 | 0 | - | - | 0.0 | |
| 08/04:20am | 17.5 | 19.5 | 15.9 | 90 | 1.0 | CALM | 0 | 2 | 0 | 1 | - | - | 0.0 | |
| 08/04:10am | 17.6 | 19.6 | 16.1 | 91 | 0.9 | CALM | 0 | 2 | 0 | 1 | - | - | 0.0 | |
| 08/04:00am | 17.6 | 19.3 | 16.3 | 92 | 0.8 | E | 2 | 4 | 1 | 2 | - | - | 0.0 | |
| 08/03:50am | 17.8 | 20.0 | 16.5 | 92 | 0.8 | CALM | 0 | 2 | 0 | 1 | - | - | 0.0 | |
| 08/03:40am | 17.9 | 20.2 | 16.7 | 93 | 0.7 | CALM | 0 | 2 | 0 | 1 | - | - | 0.0 | |
| 08/03:30am | 18.0 | 20.3 | 16.8 | 93 | 0.7 | CALM | 0 | 2 | 0 | 1 | - | - | 0.0 | |
| 08/03:20am | 18.1 | 20.1 | 17.0 | 93 | 0.7 | E | 2 | 4 | 1 | 2 | - | - | 0.0 | |
| 08/03:10am | 18.3 | 20.8 | 17.2 | 93 | 0.7 | CALM | 0 | 2 | 0 | 1 | - | - | 0.0 | |
| 08/03:00am | 18.3 | 20.4 | 17.3 | 94 | 0.6 | E | 2 | 4 | 1 | 2 | - | - | 0.0 | |
| 08/02:50am | 18.4 | 20.6 | 17.4 | 94 | 0.6 | E | 2 | 6 | 1 | 3 | - | - | 0.0 | |
| 08/02:40am | 18.5 | 20.3 | 17.5 | 94 | 0.6 | ENE | 4 | 6 | 2 | 3 | - | - | 0.0 | |
| 08/02:30am | 18.5 | 20.8 | 17.7 | 95 | 0.5 | ENE | 2 | 7 | 1 | 4 | - | - | 0.0 | |
| 08/02:20am | 18.6 | 20.9 | 17.7 | 94 | 0.6 | NE | 2 | 4 | 1 | 2 | - | - | 0.0 | |
| 08/02:10am | 18.7 | 21.0 | 17.8 | 94 | 0.6 | NE | 2 | 6 | 1 | 3 | - | - | 0.0 | |
| 08/02:00am | 18.7 | 21.0 | 17.8 | 94 | 0.6 | NE | 2 | 4 | 1 | 2 | - | - | 0.0 | |
| 08/01:50am | 18.8 | 20.8 | 17.8 | 94 | 0.6 | ENE | 4 | 6 | 2 | 3 | - | - | 0.0 | |
| 08/01:40am | 18.8 | 21.1 | 17.8 | 94 | 0.6 | ENE | 2 | 4 | 1 | 2 | - | - | 0.0 | |
| 08/01:30am | 18.8 | 20.8 | 17.8 | 94 | 0.6 | NE | 4 | 6 | 2 | 3 | - | - | 0.0 | |
| 08/01:20am | 18.7 | 20.7 | 17.8 | 94 | 0.6 | ENE | 4 | 7 | 2 | 4 | - | - | 0.0 | |
| 08/01:10am | 18.6 | 20.5 | 17.7 | 94 | 0.6 | E | 4 | 7 | 2 | 4 | - | - | 0.0 | |
| 08/01:00am | 18.5 | 20.4 | 17.6 | 94 | 0.6 | E | 4 | 6 | 2 | 3 | - | - | 0.0 | |
| 08/12:50am | 18.4 | 20.2 | 17.5 | 94 | 0.6 | E | 4 | 6 | 2 | 3 | - | - | 0.0 | |
| 08/12:40am | 18.4 | 20.7 | 17.6 | 95 | 0.5 | E | 2 | 6 | 1 | 3 | - | - | 0.0 | |
| 08/12:30am | 18.5 | 20.8 | 17.6 | 94 | 0.6 | E | 2 | 4 | 1 | 2 | - | - | 0.0 | |
| 08/12:20am | 18.5 | 20.8 | 17.6 | 94 | 0.6 | ENE | 2 | 7 | 1 | 4 | - | - | 0.0 | |
| 08/12:10am | 18.6 | 20.9 | 17.7 | 94 | 0.6 | E | 2 | 4 | 1 | 2 | - | - | 0.0 | |
| 08/12:00am | 18.5 | 20.8 | 17.7 | 95 | 0.5 | ESE | 2 | 7 | 1 | 4 | - | - | 0.0 | |
| Date/Time EST |
Temp °C |
App Temp °C |
Dew Point °C |
Rel Hum % |
Delta-T °C |
Wind | Press QNH hPa |
Press MSL hPa |
Rain since 9am mm |
|||||
|---|---|---|---|---|---|---|---|---|---|---|---|---|---|---|
| Dir | Spd km/h |
Gust km/h |
Spd kts |
Gust kts |
||||||||||
| 07/11:50pm | 18.5 | 20.4 | 17.7 | 95 | 0.5 | E | 4 | 6 | 2 | 3 | - | - | 0.0 | |
| 07/11:40pm | 18.5 | 20.8 | 17.6 | 94 | 0.6 | ESE | 2 | 4 | 1 | 2 | - | - | 0.0 | |
| 07/11:30pm | 18.4 | 20.6 | 17.5 | 94 | 0.6 | ESE | 2 | 4 | 1 | 2 | - | - | 0.0 | |
| 07/11:20pm | 18.5 | 20.3 | 17.5 | 94 | 0.6 | ESE | 4 | 6 | 2 | 3 | - | - | 0.0 | |
| 07/11:10pm | 18.5 | 20.8 | 17.6 | 94 | 0.6 | ESE | 2 | 7 | 1 | 4 | - | - | 0.0 | |
| 07/11:00pm | 18.6 | 20.5 | 17.7 | 94 | 0.6 | E | 4 | 6 | 2 | 3 | - | - | 0.0 | |
| 07/10:50pm | 18.6 | 20.9 | 17.7 | 94 | 0.6 | E | 2 | 4 | 1 | 2 | - | - | 0.0 | |
| 07/10:40pm | 18.6 | 20.9 | 17.8 | 95 | 0.5 | E | 2 | 2 | 1 | 1 | - | - | 0.0 | |
| 07/10:30pm | 18.7 | 21.1 | 17.9 | 95 | 0.5 | ENE | 2 | 6 | 1 | 3 | - | - | 0.0 | |
| 07/10:20pm | 18.7 | 20.7 | 17.9 | 95 | 0.5 | ENE | 4 | 6 | 2 | 3 | - | - | 0.0 | |
| 07/10:10pm | 18.7 | 21.0 | 17.8 | 94 | 0.6 | ENE | 2 | 4 | 1 | 2 | - | - | 0.0 | |
| 07/10:00pm | 18.9 | 21.3 | 17.9 | 94 | 0.6 | ENE | 2 | 6 | 1 | 3 | - | - | 0.0 | |
| 07/09:50pm | 19.0 | 21.4 | 18.0 | 94 | 0.6 | ENE | 2 | 4 | 1 | 2 | - | - | 0.0 | |
| 07/09:40pm | 19.1 | 21.6 | 18.2 | 94 | 0.6 | ENE | 2 | 4 | 1 | 2 | - | - | 0.0 | |
| 07/09:30pm | 19.2 | 21.8 | 18.3 | 94 | 0.6 | ENE | 2 | 4 | 1 | 2 | - | - | 0.0 | |
| 07/09:20pm | 19.3 | 21.9 | 18.4 | 94 | 0.6 | E | 2 | 4 | 1 | 2 | - | - | 0.0 | |
| 07/09:10pm | 19.4 | 22.0 | 18.5 | 94 | 0.6 | E | 2 | 6 | 1 | 3 | - | - | 0.0 | |
| 07/09:00pm | 19.4 | 22.0 | 18.5 | 94 | 0.6 | ESE | 2 | 6 | 1 | 3 | - | - | 0.0 | |
| 07/08:50pm | 19.3 | 21.9 | 18.5 | 95 | 0.5 | ENE | 2 | 4 | 1 | 2 | - | - | 0.0 | |
| 07/08:40pm | 19.3 | 21.9 | 18.4 | 94 | 0.6 | E | 2 | 6 | 1 | 3 | - | - | 0.0 | |
| 07/08:30pm | 19.3 | 21.9 | 18.4 | 94 | 0.6 | ENE | 2 | 4 | 1 | 2 | - | - | 0.0 | |
| 07/08:20pm | 19.2 | 21.8 | 18.3 | 94 | 0.6 | E | 2 | 6 | 1 | 3 | - | - | 0.0 | |
| 07/08:10pm | 19.1 | 21.6 | 18.1 | 94 | 0.6 | E | 2 | 7 | 1 | 4 | - | - | 0.0 | |
| 07/08:00pm | 19.0 | 21.8 | 17.9 | 93 | 0.7 | CALM | 0 | 2 | 0 | 1 | - | - | 0.0 | |
| 07/07:50pm | 19.0 | 21.4 | 17.9 | 93 | 0.7 | E | 2 | 2 | 1 | 1 | - | - | 0.0 | |
| 07/07:40pm | 19.1 | 21.5 | 18.0 | 93 | 0.7 | E | 2 | 4 | 1 | 2 | - | - | 0.0 | |
| 07/07:30pm | 19.2 | 22.0 | 17.9 | 92 | 0.8 | CALM | 0 | 2 | 0 | 1 | - | - | 0.0 | |
| 07/07:20pm | 19.3 | 22.1 | 18.0 | 92 | 0.8 | CALM | 0 | 2 | 0 | 1 | - | - | 0.0 | |
| 07/07:10pm | 19.4 | 21.8 | 18.0 | 92 | 0.9 | ENE | 2 | 4 | 1 | 2 | - | - | 0.0 | |
| 07/07:00pm | 19.6 | 22.0 | 17.9 | 90 | 1.1 | NE | 2 | 2 | 1 | 1 | - | - | 0.0 | |
| 07/06:50pm | 19.7 | 22.1 | 17.9 | 89 | 1.1 | NE | 2 | 6 | 1 | 3 | - | - | 0.0 | |
| 07/06:40pm | 19.9 | 22.3 | 18.0 | 89 | 1.2 | NE | 2 | 4 | 1 | 2 | - | - | 0.0 | |
| 07/06:30pm | 20.1 | 22.9 | 17.9 | 87 | 1.4 | CALM | 0 | 2 | 0 | 1 | - | - | 0.0 | |
| 07/06:20pm | 20.3 | 22.7 | 18.0 | 87 | 1.5 | ENE | 2 | 4 | 1 | 2 | - | - | 0.0 | |
| 07/06:10pm | 20.6 | 23.0 | 18.0 | 85 | 1.7 | ENE | 2 | 4 | 1 | 2 | - | - | 0.0 | |
| 07/06:00pm | 20.9 | 23.3 | 18.0 | 83 | 1.8 | ENE | 2 | 4 | 1 | 2 | - | - | 0.0 | |
| 07/05:50pm | 21.2 | 23.3 | 18.0 | 82 | 2.0 | NE | 4 | 6 | 2 | 3 | - | - | 0.0 | |
| 07/05:40pm | 21.6 | 23.7 | 18.0 | 80 | 2.3 | NE | 4 | 7 | 2 | 4 | - | - | 0.0 | |
| 07/05:30pm | 22.0 | 23.7 | 18.0 | 78 | 2.6 | NE | 6 | 9 | 3 | 5 | - | - | 0.0 | |
| 07/05:20pm | 22.3 | 24.8 | 18.1 | 77 | 2.7 | ENE | 2 | 6 | 1 | 3 | - | - | 0.0 | |
| 07/05:10pm | 22.6 | 24.7 | 18.0 | 75 | 2.9 | NE | 4 | 9 | 2 | 5 | - | - | 0.0 | |
| 07/05:00pm | 23.0 | 25.2 | 18.3 | 75 | 3.0 | NE | 4 | 6 | 2 | 3 | - | - | 0.0 | |
| 07/04:50pm | 23.3 | 25.6 | 18.5 | 74 | 3.1 | NE | 4 | 9 | 2 | 5 | - | - | 0.0 | |
| 07/04:40pm | 23.4 | 25.0 | 18.3 | 73 | 3.3 | NE | 7 | 9 | 4 | 5 | - | - | 0.0 | |
| 07/04:30pm | 23.3 | 25.1 | 18.3 | 73 | 3.2 | ENE | 6 | 7 | 3 | 4 | - | - | 0.0 | |
| 07/04:20pm | 23.3 | 24.8 | 18.0 | 72 | 3.4 | NE | 7 | 9 | 4 | 5 | - | - | 0.0 | |
| 07/04:10pm | 23.6 | 25.2 | 18.2 | 71 | 3.5 | NNE | 7 | 7 | 4 | 4 | - | - | 0.0 | |
| 07/04:00pm | 23.6 | 25.3 | 18.1 | 71 | 3.5 | NNE | 6 | 7 | 3 | 4 | - | - | 0.0 | |
| 07/03:50pm | 23.5 | 25.1 | 18.2 | 72 | 3.4 | NE | 7 | 11 | 4 | 6 | - | - | 0.0 | |
| 07/03:40pm | 24.5 | 26.3 | 18.2 | 68 | 4.1 | NNE | 6 | 11 | 3 | 6 | - | - | 0.0 | |
| 07/03:30pm | 24.4 | 25.9 | 18.1 | 68 | 4.1 | NNE | 7 | 11 | 4 | 6 | - | - | 0.0 | |
| 07/03:20pm | 24.7 | 26.2 | 18.1 | 66 | 4.3 | NNE | 7 | 11 | 4 | 6 | - | - | 0.0 | |
| 07/03:10pm | 25.3 | 26.5 | 18.3 | 65 | 4.5 | NNE | 9 | 13 | 5 | 7 | - | - | 0.0 | |
| 07/03:00pm | 25.4 | 26.7 | 18.5 | 65 | 4.5 | NNE | 9 | 13 | 5 | 7 | - | - | 0.0 | |
| 07/02:50pm | 25.3 | 26.6 | 18.4 | 65 | 4.5 | NNE | 9 | 11 | 5 | 6 | - | - | 0.0 | |
| 07/02:40pm | 24.8 | 26.1 | 18.5 | 68 | 4.1 | NNE | 9 | 11 | 5 | 6 | - | - | 0.0 | |
| 07/02:30pm | 26.0 | 28.1 | 19.3 | 66 | 4.4 | N | 7 | 9 | 4 | 5 | - | - | 0.0 | |
| 07/02:20pm | 25.9 | 27.7 | 18.2 | 62 | 5.0 | N | 6 | 9 | 3 | 5 | - | - | 0.0 | |
| 07/02:10pm | 25.9 | 27.6 | 18.1 | 62 | 5.1 | NE | 6 | 11 | 3 | 6 | - | - | 0.0 | |
| 07/02:00pm | 26.1 | 28.0 | 18.6 | 63 | 4.9 | NE | 6 | 9 | 3 | 5 | - | - | 0.0 | |
| 07/01:50pm | 25.9 | 27.4 | 18.0 | 61 | 5.1 | ENE | 7 | 9 | 4 | 5 | - | - | 0.0 | |
| 07/01:40pm | 26.0 | 27.8 | 18.3 | 62 | 5.0 | NE | 6 | 9 | 3 | 5 | - | - | 0.0 | |
| 07/01:30pm | 25.8 | 27.6 | 18.4 | 63 | 4.8 | NE | 6 | 7 | 3 | 4 | - | - | 0.0 | |
| 07/01:20pm | 25.0 | 27.3 | 18.5 | 67 | 4.2 | ENE | 4 | 7 | 2 | 4 | - | - | 0.0 | |
| 07/01:10pm | 24.4 | 26.5 | 18.1 | 68 | 4.1 | NE | 4 | 6 | 2 | 3 | - | - | 0.0 | |
| 07/01:00pm | 24.1 | 25.9 | 18.3 | 70 | 3.7 | ENE | 6 | 9 | 3 | 5 | - | - | 0.0 | |
| 07/12:50pm | 24.5 | 26.3 | 18.2 | 68 | 4.1 | E | 6 | 11 | 3 | 6 | - | - | 0.0 | |
| 07/12:40pm | 25.1 | 27.4 | 18.6 | 67 | 4.2 | NE | 4 | 9 | 2 | 5 | - | - | 0.0 | |
| 07/12:30pm | 25.4 | 27.1 | 18.6 | 66 | 4.4 | NNE | 7 | 11 | 4 | 6 | - | - | 0.0 | |
| 07/12:20pm | 25.8 | 27.5 | 18.0 | 62 | 5.0 | NNE | 6 | 9 | 3 | 5 | - | - | 0.0 | |
| 07/12:10pm | 26.1 | 27.8 | 18.4 | 62 | 5.0 | NE | 7 | 11 | 4 | 6 | - | - | 0.0 | |
| 07/12:00pm | 25.8 | 27.5 | 18.5 | 64 | 4.8 | ENE | 7 | 11 | 4 | 6 | - | - | 0.0 | |
| 07/11:50am | 25.6 | 27.4 | 18.8 | 66 | 4.4 | ENE | 7 | 11 | 4 | 6 | - | - | 0.0 | |
| 07/11:40am | 25.6 | 27.1 | 18.0 | 63 | 4.9 | NE | 7 | 11 | 4 | 6 | - | - | 0.0 | |
| 07/11:30am | 25.6 | 27.3 | 18.4 | 64 | 4.7 | NNE | 7 | 11 | 4 | 6 | - | - | 0.0 | |
| 07/11:20am | 25.0 | 26.7 | 18.6 | 67 | 4.2 | NNE | 7 | 13 | 4 | 7 | - | - | 0.0 | |
| 07/11:10am | 25.0 | 26.9 | 18.5 | 67 | 4.2 | NE | 6 | 9 | 3 | 5 | - | - | 0.0 | |
| 07/11:00am | 25.3 | 27.6 | 18.6 | 66 | 4.4 | ENE | 4 | 6 | 2 | 3 | - | - | 0.0 | |
| 07/10:50am | 24.6 | 26.7 | 18.2 | 67 | 4.1 | NNE | 4 | 7 | 2 | 4 | - | - | 0.0 | |
| 07/10:40am | 25.3 | 27.0 | 18.1 | 64 | 4.7 | NNE | 6 | 7 | 3 | 4 | - | - | 0.0 | |
| 07/10:30am | 25.1 | 26.9 | 18.3 | 66 | 4.4 | ENE | 6 | 11 | 3 | 6 | - | - | 0.0 | |
| 07/10:20am | 24.2 | 26.2 | 17.9 | 68 | 4.0 | ENE | 4 | 7 | 2 | 4 | - | - | 0.0 | |
| 07/10:10am | 23.7 | 25.5 | 17.3 | 67 | 4.1 | E | 4 | 7 | 2 | 4 | - | - | 0.0 | |
| 07/10:00am | 22.9 | 24.4 | 17.7 | 72 | 3.3 | ENE | 6 | 9 | 3 | 5 | - | - | 0.0 | |
| 07/09:50am | 22.8 | 24.3 | 17.5 | 72 | 3.4 | ENE | 6 | 13 | 3 | 7 | - | - | 0.0 | |
| 07/09:40am | 22.4 | 24.4 | 17.9 | 75 | 2.9 | SE | 4 | 9 | 2 | 5 | - | - | 0.0 | |
| 07/09:30am | 22.0 | 24.3 | 17.6 | 76 | 2.8 | E | 2 | 6 | 1 | 3 | - | - | 0.0 | |
| 07/09:20am | 22.0 | 24.0 | 17.8 | 77 | 2.7 | ENE | 4 | 6 | 2 | 3 | - | - | 0.0 | |
| 07/09:10am | 22.1 | 24.0 | 17.7 | 76 | 2.8 | E | 4 | 7 | 2 | 4 | - | - | 0.0 | |
| 07/09:00am | 22.2 | 23.9 | 18.0 | 77 | 2.7 | E | 6 | 9 | 3 | 5 | - | - | 0.0 | |
| 07/08:50am | 22.1 | 24.2 | 18.0 | 77 | 2.6 | E | 4 | 9 | 2 | 5 | - | - | 0.0 | |
| 07/08:40am | 21.9 | 23.9 | 17.9 | 78 | 2.6 | ENE | 4 | 7 | 2 | 4 | - | - | 0.0 | |
| 07/08:30am | 21.7 | 24.3 | 18.5 | 82 | 2.1 | E | 2 | 4 | 1 | 2 | - | - | 0.0 | |
| 07/08:20am | 20.6 | 23.2 | 18.5 | 88 | 1.3 | E | 2 | 4 | 1 | 2 | - | - | 0.0 | |
| 07/08:10am | 20.0 | 22.4 | 18.9 | 93 | 0.7 | NE | 4 | 6 | 2 | 3 | - | - | 0.0 | |
| 07/08:00am | 19.5 | 21.9 | 18.7 | 95 | 0.5 | E | 4 | 7 | 2 | 4 | - | - | 0.0 | |
| 07/07:50am | 19.1 | 21.7 | 18.5 | 96 | 0.4 | ESE | 2 | 4 | 1 | 2 | - | - | 0.0 | |
| 07/07:40am | 18.8 | 21.3 | 18.2 | 96 | 0.4 | SE | 2 | 6 | 1 | 3 | - | - | 0.0 | |
| 07/07:30am | 18.4 | 20.8 | 17.9 | 97 | 0.3 | SE | 2 | 4 | 1 | 2 | - | - | 0.0 | |
| 07/07:20am | 18.0 | 20.6 | 17.5 | 97 | 0.3 | CALM | 0 | 4 | 0 | 2 | - | - | 0.0 | |
| 07/07:10am | 17.4 | 19.4 | 16.9 | 97 | 0.3 | ESE | 2 | 4 | 1 | 2 | - | - | 0.0 | |
| 07/07:00am | 16.7 | 18.8 | 16.2 | 97 | 0.3 | CALM | 0 | 0 | 0 | 0 | - | - | 0.0 | |
| 07/06:50am | 16.7 | 18.7 | 16.1 | 96 | 0.4 | CALM | 0 | 4 | 0 | 2 | - | - | 0.0 | |
| 07/06:40am | 16.7 | 18.8 | 16.2 | 97 | 0.3 | CALM | 0 | 0 | 0 | 0 | - | - | 0.0 | |
| 07/06:30am | 16.8 | 18.9 | 16.3 | 97 | 0.3 | CALM | 0 | 0 | 0 | 0 | - | - | 0.0 | |
| 07/06:20am | 16.4 | 18.3 | 15.8 | 96 | 0.4 | CALM | 0 | 0 | 0 | 0 | - | - | 0.0 | |
| 07/06:10am | 16.6 | 18.6 | 16.0 | 96 | 0.4 | CALM | 0 | 0 | 0 | 0 | - | - | 0.0 | |
| 07/06:00am | 16.9 | 19.0 | 16.2 | 96 | 0.4 | CALM | 0 | 0 | 0 | 0 | - | - | 0.0 | |
| 07/05:50am | 17.3 | 19.5 | 16.6 | 96 | 0.4 | CALM | 0 | 0 | 0 | 0 | - | - | 0.0 | |
| 07/05:40am | 17.3 | 19.5 | 16.6 | 96 | 0.4 | CALM | 0 | 0 | 0 | 0 | - | - | 0.0 | |
| 07/05:30am | 17.4 | 19.7 | 16.7 | 96 | 0.4 | CALM | 0 | 0 | 0 | 0 | - | - | 0.0 | |
| 07/05:20am | 17.6 | 20.0 | 17.0 | 96 | 0.4 | CALM | 0 | 4 | 0 | 2 | - | - | 0.0 | |
| 07/05:10am | 17.7 | 20.1 | 17.0 | 96 | 0.4 | CALM | 0 | 4 | 0 | 2 | - | - | 0.0 | |
| 07/05:00am | 17.8 | 19.9 | 17.2 | 96 | 0.4 | ESE | 2 | 4 | 1 | 2 | - | - | 0.0 | |
| 07/04:50am | 17.8 | 19.9 | 17.2 | 96 | 0.4 | E | 2 | 4 | 1 | 2 | - | - | 0.0 | |
| 07/04:40am | 17.8 | 19.9 | 17.2 | 96 | 0.4 | ESE | 2 | 4 | 1 | 2 | - | - | 0.0 | |
| 07/04:30am | 17.9 | 20.0 | 17.3 | 96 | 0.4 | ESE | 2 | 6 | 1 | 3 | - | - | 0.0 | |
| 07/04:20am | 17.7 | 20.1 | 17.1 | 96 | 0.4 | CALM | 0 | 2 | 0 | 1 | - | - | 0.0 | |
| 07/04:10am | 17.8 | 20.2 | 17.1 | 96 | 0.4 | CALM | 0 | 0 | 0 | 0 | - | - | 0.0 | |
| 07/04:00am | 17.9 | 20.4 | 17.2 | 96 | 0.4 | CALM | 0 | 2 | 0 | 1 | - | - | 0.0 | |
| 07/03:50am | 18.1 | 20.7 | 17.4 | 96 | 0.4 | CALM | 0 | 2 | 0 | 1 | - | - | 0.0 | |
| 07/03:40am | 18.1 | 20.3 | 17.5 | 96 | 0.4 | ENE | 2 | 6 | 1 | 3 | - | - | 0.0 | |
| 07/03:30am | 18.1 | 20.3 | 17.5 | 96 | 0.4 | E | 2 | 2 | 1 | 1 | - | - | 0.0 | |
| 07/03:20am | 17.9 | 20.0 | 17.3 | 96 | 0.4 | ESE | 2 | 4 | 1 | 2 | - | - | 0.0 | |
| 07/03:10am | 17.8 | 20.3 | 17.2 | 96 | 0.4 | CALM | 0 | 2 | 0 | 1 | - | - | 0.0 | |
| 07/03:00am | 17.5 | 19.9 | 16.9 | 96 | 0.4 | CALM | 0 | 2 | 0 | 1 | - | - | 0.0 | |
| 07/02:50am | 17.5 | 19.8 | 16.8 | 96 | 0.4 | CALM | 0 | 0 | 0 | 0 | - | - | 0.0 | |
| 07/02:40am | 17.8 | 20.2 | 17.1 | 96 | 0.4 | CALM | 0 | 0 | 0 | 0 | - | - | 0.0 | |
| 07/02:30am | 17.8 | 19.9 | 17.1 | 96 | 0.4 | ESE | 2 | 2 | 1 | 1 | - | - | 0.0 | |
| 07/02:20am | 17.9 | 20.0 | 17.1 | 95 | 0.5 | ESE | 2 | 4 | 1 | 2 | - | - | 0.0 | |
| 07/02:10am | 17.9 | 20.0 | 17.1 | 95 | 0.5 | ESE | 2 | 4 | 1 | 2 | - | - | 0.0 | |
| 07/02:00am | 18.0 | 20.5 | 17.2 | 95 | 0.5 | CALM | 0 | 2 | 0 | 1 | - | - | 0.0 | |
| 07/01:50am | 18.1 | 20.2 | 17.3 | 95 | 0.5 | ESE | 2 | 4 | 1 | 2 | - | - | 0.0 | |
| 07/01:40am | 18.1 | 20.2 | 17.3 | 95 | 0.5 | E | 2 | 4 | 1 | 2 | - | - | 0.0 | |
| 07/01:30am | 18.1 | 19.9 | 17.4 | 96 | 0.4 | E | 4 | 7 | 2 | 4 | - | - | 0.0 | |
| 07/01:20am | 18.2 | 20.4 | 17.4 | 95 | 0.5 | E | 2 | 4 | 1 | 2 | - | - | 0.0 | |
| 07/01:10am | 18.2 | 20.4 | 17.4 | 95 | 0.5 | E | 2 | 6 | 1 | 3 | - | - | 0.0 | |
| 07/01:00am | 18.3 | 20.9 | 17.5 | 95 | 0.5 | CALM | 0 | 4 | 0 | 2 | - | - | 0.0 | |
| 07/12:50am | 18.3 | 20.5 | 17.5 | 95 | 0.5 | ENE | 2 | 4 | 1 | 2 | - | - | 0.0 | |
| 07/12:40am | 18.4 | 20.7 | 17.6 | 95 | 0.5 | E | 2 | 4 | 1 | 2 | - | - | 0.0 | |
| 07/12:30am | 18.4 | 20.7 | 17.7 | 96 | 0.4 | E | 2 | 7 | 1 | 4 | - | - | 0.0 | |
| 07/12:20am | 18.5 | 20.8 | 17.7 | 95 | 0.5 | E | 2 | 4 | 1 | 2 | - | - | 0.0 | |
| 07/12:10am | 18.4 | 20.7 | 17.7 | 96 | 0.4 | ENE | 2 | 6 | 1 | 3 | - | - | 0.0 | |
| 07/12:00am | 18.4 | 21.1 | 17.7 | 96 | 0.4 | CALM | 0 | 2 | 0 | 1 | - | - | 0.0 | |
| Date/Time EST |
Temp °C |
App Temp °C |
Dew Point °C |
Rel Hum % |
Delta-T °C |
Wind | Press QNH hPa |
Press MSL hPa |
Rain since 9am mm |
||||
|---|---|---|---|---|---|---|---|---|---|---|---|---|---|
| Dir | Spd km/h |
Gust km/h |
Spd kts |
Gust kts |
|||||||||
| 06/11:50pm | 18.4 | 21.1 | 17.7 | 96 | 0.4 | CALM | 0 | 2 | 0 | 1 | - | - | 0.0 |
| 06/11:40pm | 18.4 | 21.1 | 17.7 | 96 | 0.4 | CALM | 0 | 2 | 0 | 1 | - | - | 0.0 |
| 06/11:30pm | 18.3 | 20.6 | 17.6 | 96 | 0.4 | E | 2 | 4 | 1 | 2 | - | - | 0.0 |
| 06/11:20pm | 18.3 | 20.9 | 17.5 | 95 | 0.5 | CALM | 0 | 6 | 0 | 3 | - | - | 0.0 |
| 06/11:10pm | 18.2 | 20.4 | 17.4 | 95 | 0.5 | NE | 2 | 4 | 1 | 2 | - | - | 0.0 |
| 06/11:00pm | 18.1 | 20.2 | 17.3 | 95 | 0.5 | ENE | 2 | 4 | 1 | 2 | - | - | 0.0 |
| 06/10:50pm | 18.2 | 20.7 | 17.3 | 94 | 0.6 | CALM | 0 | 4 | 0 | 2 | - | - | 0.0 |
| 06/10:40pm | 18.2 | 20.3 | 17.3 | 94 | 0.6 | ESE | 2 | 6 | 1 | 3 | - | - | 0.0 |
| 06/10:30pm | 18.2 | 20.3 | 17.3 | 94 | 0.6 | ESE | 2 | 4 | 1 | 2 | - | - | 0.0 |
| 06/10:20pm | 18.2 | 19.9 | 17.2 | 94 | 0.6 | E | 4 | 6 | 2 | 3 | - | - | 0.0 |
| 06/10:10pm | 18.2 | 20.3 | 17.2 | 94 | 0.6 | E | 2 | 6 | 1 | 3 | - | - | 0.0 |
| 06/10:00pm | 18.2 | 20.3 | 17.2 | 94 | 0.6 | E | 2 | 6 | 1 | 3 | - | - | 0.0 |
| 06/09:50pm | 18.4 | 20.6 | 17.4 | 94 | 0.6 | ENE | 2 | 6 | 1 | 3 | - | - | 0.0 |
| 06/09:40pm | 18.4 | 20.6 | 17.5 | 94 | 0.6 | ENE | 2 | 6 | 1 | 3 | - | - | 0.0 |
| 06/09:30pm | 18.4 | 20.6 | 17.5 | 94 | 0.6 | NE | 2 | 6 | 1 | 3 | - | - | 0.0 |
| 06/09:20pm | 18.4 | 20.6 | 17.4 | 94 | 0.6 | NE | 2 | 6 | 1 | 3 | - | - | 0.0 |
Other formats
Comma delimited format used in spreadsheet applications
http://www.bom.gov.au/fwo/IDQ60801/IDQ60801.99125.axf
JavaScript Object Notation format (JSON) in row-major order
http://www.bom.gov.au/fwo/IDQ60801/IDQ60801.99125.json
Data quality
Most of these data are generated automatically and are frequently updated. Quality checks on data are not normally performed. It is possible for incorrect values to appear. Refer to information at About Latest Weather Observations and please check the disclaimer before using these data.
